createdAt,value
2022-10-09T00:00:26.294Z,13.93
2022-10-09T00:01:26.283Z,13.93
2022-10-09T00:02:26.320Z,13.93
2022-10-09T00:03:26.258Z,13.93
2022-10-09T00:04:26.242Z,13.93
2022-10-09T00:05:26.300Z,13.94
2022-10-09T00:06:26.238Z,13.93
2022-10-09T00:07:26.205Z,13.93
2022-10-09T00:08:26.191Z,13.93
2022-10-09T00:09:26.178Z,13.93
2022-10-09T00:10:26.164Z,13.93
2022-10-09T00:11:26.157Z,13.93
2022-10-09T00:12:26.136Z,13.93
2022-10-09T00:13:26.137Z,13.93
2022-10-09T00:14:26.112Z,13.94
2022-10-09T00:15:26.099Z,13.94
2022-10-09T00:16:26.186Z,13.94
2022-10-09T00:17:26.074Z,13.93
2022-10-09T00:18:26.059Z,13.94
2022-10-09T00:19:26.047Z,13.94
2022-10-09T00:20:26.043Z,13.91
2022-10-09T00:21:26.021Z,13.91
2022-10-09T00:22:26.032Z,13.91
2022-10-09T00:23:25.996Z,13.91
2022-10-09T00:24:25.981Z,13.91
2022-10-09T00:25:25.969Z,13.90
2022-10-09T00:26:25.961Z,13.90
2022-10-09T00:27:25.944Z,13.90
2022-10-09T00:28:26.007Z,13.90
2022-10-09T00:29:25.918Z,13.90
2022-10-09T00:30:25.905Z,13.90
2022-10-09T00:31:25.892Z,13.91
2022-10-09T00:32:25.879Z,13.90
2022-10-09T00:33:25.867Z,13.88
2022-10-09T00:34:25.851Z,13.90
2022-10-09T00:35:25.839Z,13.88
2022-10-09T00:36:25.826Z,13.88
2022-10-09T00:37:25.813Z,13.86
2022-10-09T00:38:25.823Z,13.87
2022-10-09T00:39:25.788Z,13.87
2022-10-09T00:40:25.774Z,13.88
2022-10-09T00:41:25.763Z,13.87
2022-10-09T00:42:25.749Z,13.87
2022-10-09T00:43:25.735Z,13.86
2022-10-09T00:44:25.720Z,13.87
2022-10-09T00:45:25.709Z,13.87
2022-10-09T00:46:25.811Z,13.88
2022-10-09T00:47:25.684Z,13.87
2022-10-09T00:48:25.669Z,13.87
2022-10-09T00:49:25.657Z,13.88
2022-10-09T00:50:25.644Z,13.87
2022-10-09T00:51:25.631Z,13.86
2022-10-09T00:52:25.617Z,13.87
2022-10-09T00:53:25.613Z,13.87
2022-10-09T00:54:25.618Z,13.87
2022-10-09T00:55:25.582Z,13.87
2022-10-09T00:56:25.564Z,13.86
2022-10-09T00:57:25.553Z,13.87
2022-10-09T00:58:25.539Z,13.86
2022-10-09T00:59:25.527Z,13.86
2022-10-09T01:00:25.518Z,13.86
2022-10-09T01:01:25.567Z,13.83
2022-10-09T01:02:25.551Z,13.83
2022-10-09T01:03:25.476Z,13.83
2022-10-09T01:04:25.461Z,13.86
2022-10-09T01:05:25.452Z,13.86
2022-10-09T01:06:25.436Z,13.83
2022-10-09T01:07:25.425Z,13.83
2022-10-09T01:08:25.414Z,13.83
2022-10-09T01:09:25.408Z,13.83
2022-10-09T01:10:25.407Z,13.86
2022-10-09T01:11:25.374Z,13.86
2022-10-09T01:12:25.357Z,13.83
2022-10-09T01:13:25.347Z,13.83
2022-10-09T01:14:25.331Z,13.83
2022-10-09T01:15:25.410Z,13.82
2022-10-09T01:16:25.359Z,13.82
2022-10-09T01:17:25.295Z,13.82
2022-10-09T01:18:25.280Z,13.83
2022-10-09T01:19:25.271Z,13.82
2022-10-09T01:20:25.256Z,13.82
2022-10-09T01:21:25.242Z,13.80
2022-10-09T01:22:25.228Z,13.80
2022-10-09T01:23:25.219Z,13.80
2022-10-09T01:24:25.202Z,13.80
2022-10-09T01:25:25.191Z,13.79
2022-10-09T01:26:25.201Z,13.79
2022-10-09T01:27:25.165Z,13.79
2022-10-09T01:28:25.204Z,13.80
2022-10-09T01:29:25.289Z,13.80
2022-10-09T01:31:06.358Z,13.80
2022-10-09T01:32:00.217Z,13.79
2022-10-09T01:33:35.158Z,13.82
2022-10-09T01:35:50.052Z,13.80
2022-10-09T01:36:44.033Z,13.79
2022-10-09T01:37:44.020Z,13.79
2022-10-09T01:38:44.009Z,13.79
2022-10-09T01:39:49.999Z,13.80
2022-10-09T01:40:43.984Z,13.79
2022-10-09T01:41:49.994Z,13.78
2022-10-09T01:43:18.908Z,13.79
2022-10-09T01:44:53.849Z,13.79
2022-10-09T01:45:59.866Z,13.76
2022-10-09T01:46:53.869Z,13.78
2022-10-09T01:47:53.659Z,13.78
2022-10-09T01:48:53.643Z,13.78
2022-10-09T01:49:53.630Z,13.78
2022-10-09T01:50:53.617Z,13.78
2022-10-09T01:51:53.602Z,13.80
2022-10-09T01:52:53.887Z,13.78
2022-10-09T01:53:53.576Z,13.79
2022-10-09T01:54:53.566Z,13.79
2022-10-09T01:55:53.549Z,13.79
2022-10-09T01:56:53.630Z,13.79
2022-10-09T01:57:53.523Z,13.78
2022-10-09T01:58:53.516Z,13.78
2022-10-09T01:59:53.496Z,13.76
2022-10-09T02:00:53.488Z,13.76
2022-10-09T02:01:53.550Z,13.78
2022-10-09T02:02:53.862Z,13.76
2022-10-09T02:03:53.444Z,13.78
2022-10-09T02:04:53.432Z,13.76
2022-10-09T02:05:53.418Z,13.76
2022-10-09T02:06:53.405Z,13.76
2022-10-09T02:07:53.392Z,13.76
2022-10-09T02:08:53.382Z,13.76
2022-10-09T02:09:53.365Z,13.76
2022-10-09T02:10:53.352Z,13.76
2022-10-09T02:11:53.337Z,13.76
2022-10-09T02:12:53.350Z,13.75
2022-10-09T02:13:53.310Z,13.75
2022-10-09T02:14:53.305Z,13.75
2022-10-09T02:15:53.409Z,13.75
2022-10-09T02:16:53.273Z,13.73
2022-10-09T02:17:53.260Z,13.73
2022-10-09T02:18:53.247Z,13.73
2022-10-09T02:19:53.234Z,13.72
2022-10-09T02:20:53.220Z,13.73
2022-10-09T02:21:54.556Z,13.73
2022-10-09T02:22:53.192Z,13.75
2022-10-09T02:23:53.182Z,13.75
2022-10-09T02:24:53.168Z,13.73
2022-10-09T02:25:53.155Z,13.75
2022-10-09T02:26:53.149Z,13.72
2022-10-09T02:27:53.129Z,13.72
2022-10-09T02:28:53.189Z,13.72
2022-10-09T02:29:53.102Z,13.72
2022-10-09T02:30:53.148Z,13.72
2022-10-09T02:31:53.076Z,13.72
2022-10-09T02:32:53.061Z,13.72
2022-10-09T02:33:53.050Z,13.73
2022-10-09T02:34:53.037Z,13.72
2022-10-09T02:35:53.025Z,13.72
2022-10-09T02:36:53.009Z,13.70
2022-10-09T02:37:52.997Z,13.69
2022-10-09T02:38:52.985Z,13.69
2022-10-09T02:39:52.970Z,13.72
2022-10-09T02:40:52.954Z,13.70
2022-10-09T02:41:52.943Z,13.70
2022-10-09T02:42:52.929Z,13.70
2022-10-09T02:43:52.917Z,13.69
2022-10-09T02:44:52.926Z,13.69
2022-10-09T02:45:52.891Z,13.70
2022-10-09T02:46:53.005Z,13.70
2022-10-09T02:47:52.864Z,13.70
2022-10-09T02:48:52.849Z,13.69
2022-10-09T02:49:52.837Z,13.68
2022-10-09T02:50:52.823Z,13.69
2022-10-09T02:51:52.811Z,13.70
2022-10-09T02:52:52.796Z,13.70
2022-10-09T02:53:52.785Z,13.70
2022-10-09T02:54:52.771Z,13.69
2022-10-09T02:55:52.757Z,13.68
2022-10-09T02:56:52.747Z,13.69
2022-10-09T02:57:52.733Z,13.68
2022-10-09T02:58:52.717Z,13.70
2022-10-09T02:59:52.706Z,13.69
2022-10-09T03:00:52.714Z,13.66
2022-10-09T03:01:52.854Z,13.68
2022-10-09T03:02:53.191Z,13.66
2022-10-09T03:03:52.657Z,13.69
2022-10-09T03:04:52.639Z,13.68
2022-10-09T03:05:52.627Z,13.68
2022-10-09T03:06:52.613Z,13.68
2022-10-09T03:07:52.599Z,13.68
2022-10-09T03:08:52.587Z,13.66
2022-10-09T03:09:52.574Z,13.68
2022-10-09T03:10:52.560Z,13.66
2022-10-09T03:11:52.547Z,13.68
2022-10-09T03:12:52.532Z,13.66
2022-10-09T03:13:52.520Z,13.66
2022-10-09T03:14:52.507Z,13.68
2022-10-09T03:15:52.510Z,13.68
2022-10-09T03:16:52.519Z,13.68
2022-10-09T03:17:52.469Z,13.68
2022-10-09T03:18:52.452Z,13.66
2022-10-09T03:19:52.440Z,13.66
2022-10-09T03:20:52.426Z,13.66
2022-10-09T03:21:52.414Z,13.64
2022-10-09T03:22:52.399Z,13.64
2022-10-09T03:23:52.399Z,13.62
2022-10-09T03:24:52.372Z,13.62
2022-10-09T03:25:52.362Z,13.62
2022-10-09T03:26:52.346Z,13.62
2022-10-09T03:27:52.333Z,13.62
2022-10-09T03:28:52.394Z,13.62
2022-10-09T03:29:52.307Z,13.62
2022-10-09T03:30:52.296Z,13.64
2022-10-09T03:31:53.474Z,13.64
2022-10-09T03:32:52.290Z,13.64
2022-10-09T03:33:52.255Z,13.62
2022-10-09T03:34:52.238Z,13.62
2022-10-09T03:35:52.301Z,13.60
2022-10-09T03:36:52.215Z,13.62
2022-10-09T03:37:52.203Z,13.64
2022-10-09T03:38:52.185Z,13.61
2022-10-09T03:39:52.178Z,13.60
2022-10-09T03:40:52.160Z,13.64
2022-10-09T03:41:52.147Z,13.61
2022-10-09T03:42:52.256Z,13.62
2022-10-09T03:43:52.121Z,13.61
2022-10-09T03:44:52.107Z,13.61
2022-10-09T03:45:52.094Z,13.60
2022-10-09T03:46:52.162Z,13.61
2022-10-09T03:47:52.072Z,13.61
2022-10-09T03:48:52.078Z,13.61
2022-10-09T03:49:52.043Z,13.60
2022-10-09T03:50:52.028Z,13.60
2022-10-09T03:51:52.015Z,13.58
2022-10-09T03:52:52.173Z,13.60
2022-10-09T03:53:51.994Z,13.61
2022-10-09T03:54:51.974Z,13.60
2022-10-09T03:55:51.963Z,13.58
2022-10-09T03:56:51.948Z,13.58
2022-10-09T03:57:51.948Z,13.60
2022-10-09T03:58:51.922Z,13.58
2022-10-09T03:59:51.911Z,13.60
2022-10-09T04:00:51.970Z,13.60
2022-10-09T04:01:51.883Z,13.60
2022-10-09T04:02:52.568Z,13.60
2022-10-09T04:03:51.857Z,13.58
2022-10-09T04:04:51.876Z,13.58
2022-10-09T04:05:51.832Z,13.58
2022-10-09T04:06:51.817Z,13.57
2022-10-09T04:07:51.805Z,13.57
2022-10-09T04:08:51.790Z,13.57
2022-10-09T04:09:51.779Z,13.57
2022-10-09T04:10:51.764Z,13.57
2022-10-09T04:11:51.754Z,13.58
2022-10-09T04:12:51.879Z,13.58
2022-10-09T04:13:51.727Z,13.55
2022-10-09T04:14:51.712Z,13.58
2022-10-09T04:15:51.701Z,13.57
2022-10-09T04:16:51.684Z,13.57
2022-10-09T04:17:51.674Z,13.55
2022-10-09T04:18:51.657Z,13.54
2022-10-09T04:19:51.646Z,13.55
2022-10-09T04:20:51.679Z,13.55
2022-10-09T04:21:51.621Z,13.55
2022-10-09T04:22:51.899Z,13.55
2022-10-09T04:23:51.595Z,13.55
2022-10-09T04:24:51.581Z,13.54
2022-10-09T04:25:51.567Z,13.55
2022-10-09T04:26:51.553Z,13.55
2022-10-09T04:27:51.541Z,13.55
2022-10-09T04:28:51.591Z,13.55
2022-10-09T04:29:51.515Z,13.54
2022-10-09T04:30:51.503Z,13.55
2022-10-09T04:31:51.525Z,13.54
2022-10-09T04:32:51.797Z,13.54
2022-10-09T04:33:51.465Z,13.54
2022-10-09T04:34:51.448Z,13.55
2022-10-09T04:35:51.435Z,13.54
2022-10-09T04:36:51.447Z,13.53
2022-10-09T04:37:51.409Z,13.53
2022-10-09T04:38:51.395Z,13.54
2022-10-09T04:39:51.383Z,13.54
2022-10-09T04:40:51.367Z,13.54
2022-10-09T04:41:51.354Z,13.54
2022-10-09T04:42:51.770Z,13.54
2022-10-09T04:43:51.331Z,13.53
2022-10-09T04:44:51.314Z,13.53
2022-10-09T04:45:51.363Z,13.54
2022-10-09T04:46:51.288Z,13.54
2022-10-09T04:47:51.278Z,13.53
2022-10-09T04:48:51.262Z,13.55
2022-10-09T04:49:51.255Z,13.53
2022-10-09T04:50:51.237Z,13.53
2022-10-09T04:51:51.226Z,13.51
2022-10-09T04:52:51.688Z,13.53
2022-10-09T04:53:51.198Z,13.53
2022-10-09T04:54:51.184Z,13.53
2022-10-09T04:55:51.174Z,13.53
2022-10-09T04:56:51.160Z,13.51
2022-10-09T04:57:51.148Z,13.51
2022-10-09T04:58:51.132Z,13.51
2022-10-09T04:59:51.123Z,13.50
2022-10-09T05:00:51.162Z,13.50
2022-10-09T05:01:51.161Z,13.51
2022-10-09T05:02:51.356Z,13.50
2022-10-09T05:03:51.066Z,13.51
2022-10-09T05:04:51.055Z,13.50
2022-10-09T05:05:51.045Z,13.51
2022-10-09T05:06:51.024Z,13.48
2022-10-09T05:07:51.014Z,13.48
2022-10-09T05:08:51.023Z,13.50
2022-10-09T05:09:56.993Z,13.48
2022-10-09T05:10:50.973Z,13.50
2022-10-09T05:11:50.961Z,13.48
2022-10-09T05:12:51.338Z,13.46
2022-10-09T05:13:50.936Z,13.50
2022-10-09T05:14:50.920Z,13.48
2022-10-09T05:15:50.909Z,13.51
2022-10-09T05:17:12.565Z,13.48
2022-10-09T05:17:51.927Z,13.48
2022-10-09T05:18:50.865Z,13.48
2022-10-09T05:19:50.855Z,13.50
2022-10-09T05:20:50.841Z,13.48
2022-10-09T05:21:50.830Z,13.48
2022-10-09T05:22:51.089Z,13.46
2022-10-09T05:23:50.804Z,13.46
2022-10-09T05:24:50.811Z,13.50
2022-10-09T05:25:50.777Z,13.46
2022-10-09T05:26:50.761Z,13.46
2022-10-09T05:27:50.750Z,13.46
2022-10-09T05:28:50.826Z,13.46
2022-10-09T05:29:50.722Z,13.45
2022-10-09T05:30:50.709Z,13.46
2022-10-09T05:31:50.790Z,13.46
2022-10-09T05:32:51.082Z,13.46
2022-10-09T05:33:50.669Z,13.46
2022-10-09T05:34:50.654Z,13.45
2022-10-09T05:35:50.643Z,13.46
2022-10-09T05:36:50.629Z,13.46
2022-10-09T05:37:50.616Z,13.45
2022-10-09T05:38:50.602Z,13.45
2022-10-09T05:39:50.590Z,13.45
2022-10-09T05:40:50.599Z,13.45
2022-10-09T05:41:50.564Z,13.45
2022-10-09T05:42:50.935Z,13.45
2022-10-09T05:43:50.537Z,13.45
2022-10-09T05:44:50.521Z,13.45
2022-10-09T05:45:50.606Z,13.45
2022-10-09T05:46:50.495Z,13.43
2022-10-09T05:47:50.483Z,13.45
2022-10-09T05:48:50.468Z,13.45
2022-10-09T05:49:50.457Z,13.45
2022-10-09T05:50:50.441Z,13.42
2022-10-09T05:51:50.429Z,13.43
2022-10-09T05:52:50.777Z,13.45
2022-10-09T05:53:50.402Z,13.43
2022-10-09T05:54:50.390Z,13.43
2022-10-09T05:55:50.377Z,13.42
2022-10-09T05:56:50.390Z,13.43
2022-10-09T05:57:50.360Z,13.43
2022-10-09T05:58:50.335Z,13.43
2022-10-09T05:59:50.324Z,13.43
2022-10-09T06:00:50.319Z,13.43
2022-10-09T06:01:50.442Z,13.43
2022-10-09T06:02:50.774Z,13.45
2022-10-09T06:03:50.281Z,13.43
2022-10-09T06:04:50.270Z,13.45
2022-10-09T06:05:50.255Z,13.45
2022-10-09T06:06:50.228Z,13.43
2022-10-09T06:07:50.217Z,13.43
2022-10-09T06:08:50.211Z,13.43
2022-10-09T06:09:50.192Z,13.43
2022-10-09T06:10:50.177Z,13.45
2022-10-09T06:11:50.165Z,13.45
2022-10-09T06:12:50.606Z,13.45
2022-10-09T06:13:50.154Z,13.45
2022-10-09T06:14:50.123Z,13.45
2022-10-09T06:15:50.113Z,13.45
2022-10-09T06:16:50.165Z,13.45
2022-10-09T06:17:50.085Z,13.45
2022-10-09T06:18:50.070Z,13.45
2022-10-09T06:19:50.057Z,13.45
2022-10-09T06:20:50.042Z,13.46
2022-10-09T06:21:50.029Z,13.45
2022-10-09T06:22:50.444Z,13.45
2022-10-09T06:23:50.003Z,13.46
2022-10-09T06:24:49.989Z,13.46
2022-10-09T06:25:49.977Z,13.46
2022-10-09T06:26:49.962Z,13.45
2022-10-09T06:27:49.950Z,13.46
2022-10-09T06:28:50.013Z,13.46
2022-10-09T06:29:49.926Z,13.48
2022-10-09T06:30:49.928Z,13.48
2022-10-09T06:31:49.896Z,13.46
2022-10-09T06:32:50.178Z,13.48
2022-10-09T06:33:49.870Z,13.46
2022-10-09T06:34:49.857Z,13.46
2022-10-09T06:35:49.842Z,13.48
2022-10-09T06:36:49.836Z,13.46
2022-10-09T06:37:49.816Z,13.48
2022-10-09T06:38:49.805Z,13.46
2022-10-09T06:39:49.791Z,13.48
2022-10-09T06:40:49.778Z,13.48
2022-10-09T06:41:49.766Z,13.48
2022-10-09T06:42:50.062Z,13.48
2022-10-09T06:43:49.739Z,13.50
2022-10-09T06:44:49.747Z,13.48
2022-10-09T06:45:49.743Z,13.48
2022-10-09T06:46:49.698Z,13.48
2022-10-09T06:47:49.683Z,13.50
2022-10-09T06:48:49.673Z,13.48
2022-10-09T06:49:49.656Z,13.50
2022-10-09T06:50:49.645Z,13.50
2022-10-09T06:51:49.631Z,13.48
2022-10-09T06:52:50.085Z,13.50
2022-10-09T06:53:49.604Z,13.50
2022-10-09T06:54:49.592Z,13.50
2022-10-09T06:55:49.577Z,13.50
2022-10-09T06:56:49.567Z,13.51
2022-10-09T06:57:49.549Z,13.50
2022-10-09T06:58:49.536Z,13.53
2022-10-09T06:59:49.524Z,13.53
2022-10-09T07:00:49.551Z,13.54
2022-10-09T07:01:49.539Z,13.54
2022-10-09T07:02:49.814Z,13.53
2022-10-09T07:03:49.470Z,13.53
2022-10-09T07:04:49.458Z,13.54
2022-10-09T07:05:49.444Z,13.54
2022-10-09T07:06:49.435Z,13.53
2022-10-09T07:07:49.416Z,13.53
2022-10-09T07:08:49.405Z,13.53
2022-10-09T07:09:49.389Z,13.53
2022-10-09T07:10:49.382Z,13.53
2022-10-09T07:11:49.629Z,13.53
2022-10-09T07:12:49.645Z,13.53
2022-10-09T07:13:49.336Z,13.53
2022-10-09T07:14:49.324Z,13.54
2022-10-09T07:15:49.402Z,13.53
2022-10-09T07:16:49.321Z,13.53
2022-10-09T07:17:49.283Z,13.54
2022-10-09T07:18:49.271Z,13.54
2022-10-09T07:19:49.255Z,13.53
2022-10-09T07:20:49.244Z,13.54
2022-10-09T07:21:49.229Z,13.53
2022-10-09T07:22:49.510Z,13.53
2022-10-09T07:23:49.208Z,13.53
2022-10-09T07:24:49.188Z,13.53
2022-10-09T07:25:49.173Z,13.51
2022-10-09T07:26:49.168Z,13.51
2022-10-09T07:27:49.147Z,13.51
2022-10-09T07:28:49.256Z,13.51
2022-10-09T07:29:49.119Z,13.53
2022-10-09T07:30:49.134Z,13.51
2022-10-09T07:31:49.092Z,13.53
2022-10-09T07:32:49.415Z,13.51
2022-10-09T07:33:49.066Z,13.51
2022-10-09T07:34:49.053Z,13.50
2022-10-09T07:35:49.037Z,13.53
2022-10-09T07:36:49.027Z,13.51
2022-10-09T07:37:49.012Z,13.51
2022-10-09T07:38:48.998Z,13.51
2022-10-09T07:39:48.983Z,13.51
2022-10-09T07:40:48.972Z,13.51
2022-10-09T07:41:48.956Z,13.51
2022-10-09T07:42:49.263Z,13.50
2022-10-09T07:43:48.929Z,13.53
2022-10-09T07:44:48.918Z,13.51
2022-10-09T07:45:49.002Z,13.53
2022-10-09T07:46:48.968Z,13.53
2022-10-09T07:47:48.875Z,13.53
2022-10-09T07:48:48.895Z,13.53
2022-10-09T07:49:48.853Z,13.54
2022-10-09T07:50:48.836Z,13.53
2022-10-09T07:51:48.821Z,13.54
2022-10-09T07:52:48.999Z,13.54
2022-10-09T07:53:48.795Z,13.54
2022-10-09T07:54:48.781Z,13.53
2022-10-09T07:55:48.766Z,13.53
2022-10-09T07:56:48.753Z,13.53
2022-10-09T07:57:48.739Z,13.53
2022-10-09T07:58:48.727Z,13.54
2022-10-09T07:59:48.715Z,13.54
2022-10-09T08:00:48.703Z,13.54
2022-10-09T08:01:48.723Z,13.54
2022-10-09T08:02:49.138Z,13.55
2022-10-09T08:03:48.660Z,13.54
2022-10-09T08:04:48.669Z,13.53
2022-10-09T08:05:48.632Z,13.54
2022-10-09T08:06:48.620Z,13.54
2022-10-09T08:07:48.608Z,13.54
2022-10-09T08:08:48.593Z,13.54
2022-10-09T08:09:48.579Z,13.53
2022-10-09T08:10:48.569Z,13.53
2022-10-09T08:11:48.553Z,13.51
2022-10-09T08:12:48.832Z,13.53
2022-10-09T08:13:48.527Z,13.54
2022-10-09T08:14:48.514Z,13.54
2022-10-09T08:15:48.543Z,13.55
2022-10-09T08:16:48.487Z,13.54
2022-10-09T08:17:48.472Z,13.54
2022-10-09T08:18:48.459Z,13.54
2022-10-09T08:19:48.446Z,13.53
2022-10-09T08:20:48.458Z,13.55
2022-10-09T08:21:48.420Z,13.54
2022-10-09T08:22:48.798Z,13.54
2022-10-09T08:23:48.393Z,13.54
2022-10-09T08:24:48.382Z,13.55
2022-10-09T08:25:48.366Z,13.55
2022-10-09T08:26:48.356Z,13.55
2022-10-09T08:27:48.343Z,13.57
2022-10-09T08:28:48.409Z,13.58
2022-10-09T08:29:48.315Z,13.58
2022-10-09T08:30:48.358Z,13.58
2022-10-09T08:31:48.293Z,13.58
2022-10-09T08:32:48.508Z,13.58
2022-10-09T08:33:48.260Z,13.61
2022-10-09T08:34:48.251Z,13.60
2022-10-09T08:35:48.234Z,13.62
2022-10-09T08:36:48.247Z,13.62
2022-10-09T08:37:48.208Z,13.66
2022-10-09T08:38:48.620Z,13.64
2022-10-09T08:39:48.182Z,13.64
2022-10-09T08:40:48.171Z,13.66
2022-10-09T08:41:48.155Z,13.66
2022-10-09T08:42:48.469Z,13.64
2022-10-09T08:43:48.129Z,13.61
2022-10-09T08:44:48.117Z,13.64
2022-10-09T08:45:48.103Z,13.62
2022-10-09T08:46:48.168Z,13.62
2022-10-09T08:47:48.075Z,13.62
2022-10-09T08:48:48.064Z,13.62
2022-10-09T08:49:48.050Z,13.61
2022-10-09T08:50:48.039Z,13.62
2022-10-09T08:51:48.024Z,13.64
2022-10-09T08:52:50.148Z,13.61
2022-10-09T08:53:47.997Z,13.61
2022-10-09T08:54:47.985Z,13.62
2022-10-09T08:55:47.970Z,13.61
2022-10-09T08:56:47.958Z,13.62
2022-10-09T08:57:47.947Z,13.61
2022-10-09T08:58:47.932Z,13.61
2022-10-09T08:59:47.916Z,13.62
2022-10-09T09:00:47.906Z,13.64
2022-10-09T09:01:47.921Z,13.62
2022-10-09T09:02:48.320Z,13.64
2022-10-09T09:03:47.865Z,13.64
2022-10-09T09:04:52.376Z,13.64
2022-10-09T09:05:48.879Z,13.62
2022-10-09T09:06:47.826Z,13.64
2022-10-09T09:07:47.813Z,13.64
2022-10-09T09:08:47.824Z,13.62
2022-10-09T09:09:47.788Z,13.64
2022-10-09T09:10:47.774Z,13.62
2022-10-09T09:11:47.758Z,13.62
2022-10-09T09:12:48.070Z,13.64
2022-10-09T09:13:47.732Z,13.62
2022-10-09T09:14:47.721Z,13.64
2022-10-09T09:15:47.774Z,13.62
2022-10-09T09:16:47.694Z,13.62
2022-10-09T09:17:47.681Z,13.64
2022-10-09T09:18:47.668Z,13.64
2022-10-09T09:19:47.653Z,13.66
2022-10-09T09:20:47.647Z,13.64
2022-10-09T09:21:47.626Z,13.64
2022-10-09T09:22:47.973Z,13.68
2022-10-09T09:23:47.600Z,13.66
2022-10-09T09:24:47.618Z,13.66
2022-10-09T09:25:47.574Z,13.66
2022-10-09T09:26:47.579Z,13.66
2022-10-09T09:27:47.550Z,13.68
2022-10-09T09:28:47.595Z,13.68
2022-10-09T09:29:47.521Z,13.68
2022-10-09T09:30:47.514Z,13.68
2022-10-09T09:31:47.497Z,13.69
2022-10-09T09:32:47.861Z,13.69
2022-10-09T09:33:47.467Z,13.69
2022-10-09T09:34:47.467Z,13.70
2022-10-09T09:35:47.441Z,13.70
2022-10-09T09:36:47.432Z,13.69
2022-10-09T09:37:47.415Z,13.68
2022-10-09T09:39:13.528Z,13.69
2022-10-09T09:40:35.097Z,13.69
2022-10-09T09:40:48.438Z,13.72
2022-10-09T09:41:47.362Z,13.69
2022-10-09T09:42:47.660Z,13.70
2022-10-09T09:43:47.336Z,13.72
2022-10-09T09:44:47.327Z,13.70
2022-10-09T09:45:47.313Z,13.69
2022-10-09T09:46:47.392Z,13.72
2022-10-09T09:47:47.710Z,13.70
2022-10-09T09:48:47.276Z,13.70
2022-10-09T09:49:47.259Z,13.72
2022-10-09T09:50:56.450Z,13.72
2022-10-09T09:51:48.272Z,13.73
2022-10-09T09:52:47.220Z,13.72
2022-10-09T09:53:47.213Z,13.75
2022-10-09T09:54:47.192Z,13.78
2022-10-09T09:55:47.178Z,13.80
2022-10-09T09:57:11.072Z,13.82
2022-10-09T09:57:48.428Z,13.86
2022-10-09T09:58:47.140Z,13.83
2022-10-09T09:59:47.124Z,13.83
2022-10-09T10:00:47.169Z,13.83
2022-10-09T10:01:47.175Z,13.83
2022-10-09T10:02:47.458Z,13.83
2022-10-09T10:03:47.073Z,13.82
2022-10-09T10:04:47.063Z,13.83
2022-10-09T10:05:47.045Z,13.83
2022-10-09T10:06:47.035Z,13.83
2022-10-09T10:07:47.021Z,13.83
2022-10-09T10:08:47.008Z,13.80
2022-10-09T10:09:46.993Z,13.80
2022-10-09T10:10:46.982Z,13.80
2022-10-09T10:11:46.966Z,13.79
2022-10-09T10:12:47.349Z,13.80
2022-10-09T10:13:46.940Z,13.82
2022-10-09T10:14:46.930Z,13.83
2022-10-09T10:15:46.932Z,13.82
2022-10-09T10:16:46.905Z,13.80
2022-10-09T10:17:46.888Z,13.80
2022-10-09T10:18:46.876Z,13.80
2022-10-09T10:19:46.861Z,13.82
2022-10-09T10:20:46.851Z,13.80
2022-10-09T10:21:46.834Z,13.82
2022-10-09T10:22:47.144Z,13.80
2022-10-09T10:23:46.808Z,13.80
2022-10-09T10:24:46.798Z,13.82
2022-10-09T10:25:46.784Z,13.82
2022-10-09T10:26:46.770Z,13.82
2022-10-09T10:27:47.064Z,13.82
2022-10-09T10:28:46.768Z,13.82
2022-10-09T10:29:46.729Z,13.82
2022-10-09T10:30:46.717Z,13.83
2022-10-09T10:31:46.770Z,13.86
2022-10-09T10:32:46.690Z,13.83
2022-10-09T10:33:46.676Z,13.83
2022-10-09T10:34:46.666Z,13.86
2022-10-09T10:35:46.649Z,13.87
2022-10-09T10:36:46.637Z,13.87
2022-10-09T10:37:46.958Z,13.86
2022-10-09T10:38:46.612Z,13.88
2022-10-09T10:39:46.596Z,13.88
2022-10-09T10:40:46.584Z,13.87
2022-10-09T10:41:46.570Z,13.87
2022-10-09T10:42:46.560Z,13.86
2022-10-09T10:43:46.545Z,13.87
2022-10-09T10:44:46.556Z,13.87
2022-10-09T10:45:46.519Z,13.88
2022-10-09T10:46:46.577Z,13.88
2022-10-09T10:47:46.882Z,13.88
2022-10-09T10:48:46.477Z,13.88
2022-10-09T10:49:46.465Z,13.88
2022-10-09T10:50:46.451Z,13.88
2022-10-09T10:51:46.440Z,13.88
2022-10-09T10:52:46.426Z,13.90
2022-10-09T10:53:46.417Z,13.90
2022-10-09T10:54:46.399Z,13.90
2022-10-09T10:55:46.387Z,13.90
2022-10-09T10:56:46.372Z,13.91
2022-10-09T10:57:46.711Z,13.90
2022-10-09T10:58:46.346Z,13.91
2022-10-09T10:59:46.333Z,13.91
2022-10-09T11:00:46.388Z,13.91
2022-10-09T11:01:46.307Z,13.91
2022-10-09T11:02:46.337Z,13.93
2022-10-09T11:03:46.347Z,13.93
2022-10-09T11:04:46.269Z,13.91
2022-10-09T11:05:46.256Z,13.91
2022-10-09T11:06:46.240Z,13.93
2022-10-09T11:07:46.229Z,13.93
2022-10-09T11:08:46.212Z,13.93
2022-10-09T11:09:46.202Z,13.91
2022-10-09T11:10:46.186Z,13.94
2022-10-09T11:11:46.176Z,13.93
2022-10-09T11:12:57.791Z,13.94
2022-10-09T11:13:47.338Z,13.94
2022-10-09T11:14:46.285Z,13.95
2022-10-09T11:15:46.123Z,13.94
2022-10-09T11:16:46.247Z,13.94
2022-10-09T11:17:46.097Z,13.94
2022-10-09T11:18:46.081Z,13.94
2022-10-09T11:19:46.089Z,13.94
2022-10-09T11:20:46.055Z,13.95
2022-10-09T11:21:46.045Z,13.94
2022-10-09T11:22:46.147Z,13.95
2022-10-09T11:23:46.017Z,13.95
2022-10-09T11:24:46.002Z,13.94
2022-10-09T11:25:45.990Z,13.95
2022-10-09T11:26:45.977Z,13.95
2022-10-09T11:27:45.964Z,13.97
2022-10-09T11:28:46.048Z,13.95
2022-10-09T11:29:45.944Z,13.97
2022-10-09T11:30:45.941Z,13.97
2022-10-09T11:31:46.003Z,13.97
2022-10-09T11:32:45.925Z,13.97
2022-10-09T11:33:45.886Z,13.97
2022-10-09T11:34:45.872Z,13.97
2022-10-09T11:35:45.861Z,13.98
2022-10-09T11:36:45.845Z,13.98
2022-10-09T11:37:45.998Z,13.98
2022-10-09T11:38:45.817Z,13.98
2022-10-09T11:39:45.808Z,13.98
2022-10-09T11:40:45.791Z,13.98
2022-10-09T11:41:45.779Z,14.00
2022-10-09T11:42:45.765Z,14.01
2022-10-09T11:43:45.753Z,14.00
2022-10-09T11:44:45.743Z,14.00
2022-10-09T11:45:45.773Z,14.00
2022-10-09T11:46:45.711Z,14.00
2022-10-09T11:47:45.702Z,14.01
2022-10-09T11:48:45.710Z,14.00
2022-10-09T11:49:45.675Z,14.01
2022-10-09T11:50:45.660Z,14.03
2022-10-09T11:51:45.647Z,14.01
2022-10-09T11:52:45.632Z,14.06
2022-10-09T11:53:45.619Z,14.03
2022-10-09T11:54:45.606Z,14.06
2022-10-09T11:55:45.594Z,14.03
2022-10-09T11:56:45.579Z,14.03
2022-10-09T11:57:45.567Z,14.01
2022-10-09T11:58:45.555Z,14.03
2022-10-09T11:59:45.542Z,14.06
2022-10-09T12:00:45.527Z,14.03
2022-10-09T12:01:45.543Z,14.06
2022-10-09T12:02:45.575Z,14.06
2022-10-09T12:03:45.494Z,14.06
2022-10-09T12:05:00.813Z,14.06
2022-10-09T12:05:46.503Z,14.06
2022-10-09T12:06:45.447Z,14.09
2022-10-09T12:07:45.439Z,14.09
2022-10-09T12:08:45.422Z,14.07
2022-10-09T12:09:45.409Z,14.07
2022-10-09T12:10:45.394Z,14.07
2022-10-09T12:11:45.383Z,14.07
2022-10-09T12:12:45.370Z,14.09
2022-10-09T12:13:45.361Z,14.07
2022-10-09T12:14:45.342Z,14.09
2022-10-09T12:15:45.331Z,14.09
2022-10-09T12:16:45.411Z,14.09
2022-10-09T12:17:45.304Z,14.09
2022-10-09T12:18:45.290Z,14.10
2022-10-09T12:19:45.278Z,14.10
2022-10-09T12:20:45.286Z,14.09
2022-10-09T12:21:45.252Z,14.10
2022-10-09T12:23:01.494Z,14.12
2022-10-09T12:23:46.264Z,14.10
2022-10-09T12:24:45.286Z,14.10
2022-10-09T12:25:45.200Z,14.10
2022-10-09T12:26:45.188Z,14.12
2022-10-09T12:27:45.172Z,14.12
2022-10-09T12:28:45.250Z,14.10
2022-10-09T12:29:45.148Z,14.12
2022-10-09T12:30:47.650Z,14.12
2022-10-09T12:31:45.124Z,14.12
2022-10-09T12:32:45.106Z,14.12
2022-10-09T12:33:45.093Z,14.12
2022-10-09T12:34:45.156Z,14.12
2022-10-09T12:35:45.067Z,14.13
2022-10-09T12:36:45.076Z,14.12
2022-10-09T12:37:45.042Z,14.14
2022-10-09T12:38:45.027Z,14.14
2022-10-09T12:39:45.015Z,14.13
2022-10-09T12:40:44.998Z,14.12
2022-10-09T12:41:44.987Z,14.14
2022-10-09T12:42:44.972Z,14.13
2022-10-09T12:43:44.962Z,14.14
2022-10-09T12:44:44.999Z,14.13
2022-10-09T12:45:45.040Z,14.14
2022-10-09T12:46:44.919Z,14.14
2022-10-09T12:47:44.908Z,14.14
2022-10-09T12:48:44.893Z,14.14
2022-10-09T12:49:44.881Z,14.16
2022-10-09T12:50:44.866Z,14.19
2022-10-09T12:51:44.855Z,14.16
2022-10-09T12:52:44.865Z,14.14
2022-10-09T12:53:44.833Z,14.16
2022-10-09T12:54:44.897Z,14.16
2022-10-09T12:55:44.801Z,14.16